createdAt,value
2023-01-06T06:17:46.150Z,1008.38
2023-01-06T06:27:46.278Z,1008.37
2023-01-06T06:37:46.343Z,1008.47
2023-01-06T06:47:46.154Z,1008.30
2023-01-06T06:57:46.268Z,1008.34
2023-01-06T07:07:46.330Z,1008.21
2023-01-06T07:17:46.414Z,1008.06
2023-01-06T07:27:46.242Z,1008.07
2023-01-06T07:37:46.426Z,1008.17
2023-01-06T07:47:46.412Z,1008.00
2023-01-06T07:57:46.164Z,1008.00
2023-01-06T08:07:46.217Z,1007.91
2023-01-06T08:17:46.344Z,1007.99
2023-01-06T08:27:46.108Z,1007.98
2023-01-06T08:37:46.422Z,1007.89
2023-01-06T08:47:46.516Z,1007.87
2023-01-06T08:57:46.206Z,1007.86
2023-01-06T09:07:46.347Z,1007.90
2023-01-06T09:17:46.300Z,1007.94
2023-01-06T09:27:46.373Z,1008.03
2023-01-06T09:37:46.290Z,1007.94
2023-01-06T09:47:46.254Z,1007.99
2023-01-06T09:57:46.201Z,1007.92
2023-01-06T10:07:46.270Z,1008.03
2023-01-06T10:17:46.246Z,1007.98
2023-01-06T10:27:46.312Z,1008.09
2023-01-06T10:37:46.181Z,1008.19
2023-01-06T10:47:46.344Z,1008.02
2023-01-06T10:57:46.314Z,1008.09
2023-01-06T11:07:46.414Z,1008.11
2023-01-06T11:17:46.374Z,1008.03
2023-01-06T11:27:46.400Z,1008.18
2023-01-06T11:37:46.264Z,1008.03
2023-01-06T11:47:46.252Z,1008.07
2023-01-06T11:57:46.283Z,1008.12
2023-01-06T12:07:46.352Z,1007.93
2023-01-06T12:17:46.258Z,1008.22
2023-01-06T12:27:46.122Z,1008.39
2023-01-06T12:37:46.345Z,1008.31
2023-01-06T12:47:46.416Z,1008.46
2023-01-06T12:57:46.225Z,1008.34
2023-01-06T13:07:46.339Z,1008.42
2023-01-06T13:17:46.300Z,1008.47
2023-01-06T13:27:46.152Z,1008.54
2023-01-06T13:37:46.230Z,1008.69
2023-01-06T13:47:46.197Z,1008.72
2023-01-06T13:57:46.240Z,1008.69
2023-01-06T14:07:46.421Z,1008.88
2023-01-06T14:17:46.385Z,1008.98
2023-01-06T14:27:46.349Z,1009.12
2023-01-06T14:37:46.313Z,1009.32
2023-01-06T14:47:46.367Z,1009.24
2023-01-06T14:57:46.431Z,1009.29
2023-01-06T15:07:46.559Z,1009.41
2023-01-06T15:17:46.581Z,1009.47
2023-01-06T15:27:48.257Z,1009.58
2023-01-06T15:37:46.623Z,1009.57
2023-01-06T15:47:46.563Z,1009.75
2023-01-06T15:57:46.523Z,1009.81
2023-01-06T16:07:46.701Z,1009.85
2023-01-06T16:17:46.443Z,1009.83
2023-01-06T16:27:46.625Z,1009.94
2023-01-06T16:37:46.478Z,1010.02
2023-01-06T16:47:46.486Z,1010.01
2023-01-06T16:57:46.511Z,1010.06
2023-01-06T17:07:46.688Z,1009.92
2023-01-06T17:17:46.653Z,1010.06
2023-01-06T17:27:46.721Z,1010.11
2023-01-06T17:37:46.572Z,1010.31
2023-01-06T17:47:46.643Z,1010.35
2023-01-06T17:57:47.416Z,1010.33
2023-01-06T18:07:46.679Z,1010.42
2023-01-06T18:17:46.757Z,1010.39
2023-01-06T18:27:46.606Z,1010.45
2023-01-06T18:37:46.664Z,1010.54
2023-01-06T18:47:46.630Z,1010.49
2023-01-06T18:57:46.682Z,1010.56
2023-01-06T19:07:46.647Z,1010.55
2023-01-06T19:17:46.701Z,1010.66
